sensor_id;sensor_type;location;lat;lon;timestamp;pressure;altitude;pressure_sealevel;temperature;humidity
17260;BME280;8746;49.230;9.220;2023-05-01T00:00:01;99929.09;;;8.93;100.00
17260;BME280;8746;49.230;9.220;2023-05-01T00:02:28;99924.25;;;8.81;100.00
17260;BME280;8746;49.230;9.220;2023-05-01T00:04:55;99921.28;;;8.92;100.00
17260;BME280;8746;49.230;9.220;2023-05-01T00:07:20;99923.72;;;8.96;100.00
17260;BME280;8746;49.230;9.220;2023-05-01T00:09:46;99919.38;;;8.95;100.00
17260;BME280;8746;49.230;9.220;2023-05-01T00:12:11;99914.31;;;8.89;100.00
17260;BME280;8746;49.230;9.220;2023-05-01T00:14:36;99916.41;;;8.79;100.00
17260;BME280;8746;49.230;9.220;2023-05-01T00:17:02;99906.81;;;8.78;100.00
17260;BME280;8746;49.230;9.220;2023-05-01T00:19:27;99904.34;;;8.74;100.00
17260;BME280;8746;49.230;9.220;2023-05-01T00:21:52;99901.56;;;8.78;100.00
17260;BME280;8746;49.230;9.220;2023-05-01T00:24:18;99914.09;;;8.70;100.00
17260;BME280;8746;49.230;9.220;2023-05-01T00:26:43;99904.06;;;8.81;100.00
17260;BME280;8746;49.230;9.220;2023-05-01T00:29:09;99901.34;;;8.85;100.00
17260;BME280;8746;49.230;9.220;2023-05-01T00:31:35;99901.00;;;8.94;100.00
17260;BME280;8746;49.230;9.220;2023-05-01T00:34:01;99901.34;;;8.85;100.00
17260;BME280;8746;49.230;9.220;2023-05-01T00:36:26;99896.16;;;8.81;100.00
17260;BME280;8746;49.230;9.220;2023-05-01T00:38:51;99889.88;;;8.86;100.00
17260;BME280;8746;49.230;9.220;2023-05-01T00:41:17;99894.34;;;8.84;100.00
17260;BME280;8746;49.230;9.220;2023-05-01T00:43:42;99887.25;;;8.86;100.00
17260;BME280;8746;49.230;9.220;2023-05-01T00:46:08;99884.63;;;8.86;100.00
17260;BME280;8746;49.230;9.220;2023-05-01T00:48:34;99886.41;;;8.85;100.00
17260;BME280;8746;49.230;9.220;2023-05-01T00:51:00;99880.25;;;8.86;100.00
17260;BME280;8746;49.230;9.220;2023-05-01T00:53:28;99881.41;;;8.77;100.00
17260;BME280;8746;49.230;9.220;2023-05-01T00:55:55;99881.41;;;8.77;100.00
17260;BME280;8746;49.230;9.220;2023-05-01T00:58:21;99877.16;;;8.73;100.00
17260;BME280;8746;49.230;9.220;2023-05-01T01:00:48;99875.47;;;8.71;100.00
17260;BME280;8746;49.230;9.220;2023-05-01T01:03:14;99865.94;;;8.68;100.00
17260;BME280;8746;49.230;9.220;2023-05-01T01:05:45;99868.50;;;8.70;100.00
17260;BME280;8746;49.230;9.220;2023-05-01T01:08:24;99856.16;;;8.72;100.00
17260;BME280;8746;49.230;9.220;2023-05-01T01:14:11;99859.47;;;8.78;100.00
17260;BME280;8746;49.230;9.220;2023-05-01T01:16:46;99851.94;;;8.68;100.00
17260;BME280;8746;49.230;9.220;2023-05-01T01:22:20;99853.97;;;8.59;100.00
17260;BME280;8746;49.230;9.220;2023-05-01T01:27:52;99858.94;;;8.67;100.00
17260;BME280;8746;49.230;9.220;2023-05-01T01:35:53;99847.72;;;8.62;100.00
17260;BME280;8746;49.230;9.220;2023-05-01T01:38:21;99855.75;;;8.59;100.00
17260;BME280;8746;49.230;9.220;2023-05-01T01:43:57;99847.66;;;8.63;100.00
17260;BME280;8746;49.230;9.220;2023-05-01T01:46:25;99850.09;;;8.70;100.00
17260;BME280;8746;49.230;9.220;2023-05-01T01:48:52;99850.84;;;8.73;100.00
17260;BME280;8746;49.230;9.220;2023-05-01T01:51:20;99851.66;;;8.75;100.00
17260;BME280;8746;49.230;9.220;2023-05-01T01:53:50;99847.16;;;8.79;100.00
17260;BME280;8746;49.230;9.220;2023-05-01T01:56:19;99836.69;;;8.77;100.00
17260;BME280;8746;49.230;9.220;2023-05-01T01:58:47;99835.13;;;8.72;100.00
17260;BME280;8746;49.230;9.220;2023-05-01T02:01:13;99833.47;;;8.69;100.00
17260;BME280;8746;49.230;9.220;2023-05-01T02:03:40;99833.56;;;8.66;100.00
17260;BME280;8746;49.230;9.220;2023-05-01T02:06:10;99840.75;;;8.61;99.78
17260;BME280;8746;49.230;9.220;2023-05-01T02:08:37;99843.28;;;8.64;100.00
17260;BME280;8746;49.230;9.220;2023-05-01T02:11:03;99836.31;;;8.63;100.00
17260;BME280;8746;49.230;9.220;2023-05-01T02:13:29;99844.34;;;8.58;99.96
17260;BME280;8746;49.230;9.220;2023-05-01T02:15:57;99844.28;;;8.60;100.00
17260;BME280;8746;49.230;9.220;2023-05-01T02:18:27;99838.03;;;8.64;100.00
17260;BME280;8746;49.230;9.220;2023-05-01T02:20:55;99841.56;;;8.63;99.16
17260;BME280;8746;49.230;9.220;2023-05-01T02:23:21;99835.75;;;8.53;99.79
17260;BME280;8746;49.230;9.220;2023-05-01T02:25:49;99841.09;;;8.50;98.87
17260;BME280;8746;49.230;9.220;2023-05-01T02:28:20;99837.03;;;8.40;98.07
17260;BME280;8746;49.230;9.220;2023-05-01T02:30:46;99836.44;;;8.31;97.48
17260;BME280;8746;49.230;9.220;2023-05-01T02:33:12;99833.75;;;8.33;98.61
17260;BME280;8746;49.230;9.220;2023-05-01T02:35:39;99847.69;;;8.35;98.66
17260;BME280;8746;49.230;9.220;2023-05-01T02:38:05;99837.19;;;8.35;99.94
17260;BME280;8746;49.230;9.220;2023-05-01T02:40:30;99832.06;;;8.32;99.82
17260;BME280;8746;49.230;9.220;2023-05-01T02:42:59;99824.03;;;8.35;98.46
17260;BME280;8746;49.230;9.220;2023-05-01T02:45:28;99822.47;;;8.29;99.19
17260;BME280;8746;49.230;9.220;2023-05-01T02:47:56;99819.59;;;8.37;97.72
17260;BME280;8746;49.230;9.220;2023-05-01T02:50:25;99812.84;;;8.30;100.00
17260;BME280;8746;49.230;9.220;2023-05-01T02:52:51;99807.78;;;8.24;99.61
17260;BME280;8746;49.230;9.220;2023-05-01T02:55:17;99818.09;;;8.30;99.78
17260;BME280;8746;49.230;9.220;2023-05-01T02:57:42;99806.59;;;8.32;99.69
17260;BME280;8746;49.230;9.220;2023-05-01T03:00:08;99809.19;;;8.34;98.93
17260;BME280;8746;49.230;9.220;2023-05-01T03:02:34;99809.19;;;8.34;97.95
17260;BME280;8746;49.230;9.220;2023-05-01T03:04:59;99808.34;;;8.33;98.16
17260;BME280;8746;49.230;9.220;2023-05-01T03:07:25;99803.22;;;8.29;98.73
17260;BME280;8746;49.230;9.220;2023-05-01T03:09:50;99804.94;;;8.30;98.49
17260;BME280;8746;49.230;9.220;2023-05-01T03:12:15;99807.66;;;8.27;98.90
17260;BME280;8746;49.230;9.220;2023-05-01T03:14:41;99806.81;;;8.26;98.07
17260;BME280;8746;49.230;9.220;2023-05-01T03:17:06;99806.06;;;8.23;98.67
17260;BME280;8746;49.230;9.220;2023-05-01T03:19:32;99800.81;;;8.23;98.14
17260;BME280;8746;49.230;9.220;2023-05-01T03:21:58;99798.22;;;8.21;97.94
17260;BME280;8746;49.230;9.220;2023-05-01T03:24:24;99792.00;;;8.24;97.01
17260;BME280;8746;49.230;9.220;2023-05-01T03:26:49;99792.91;;;8.23;97.77
17260;BME280;8746;49.230;9.220;2023-05-01T03:29:14;99795.75;;;8.16;97.87
17260;BME280;8746;49.230;9.220;2023-05-01T03:31:40;99793.06;;;8.18;97.44
17260;BME280;8746;49.230;9.220;2023-05-01T03:34:05;99793.41;;;8.07;97.50
17260;BME280;8746;49.230;9.220;2023-05-01T03:36:30;99794.69;;;8.22;97.07
17260;BME280;8746;49.230;9.220;2023-05-01T03:38:57;99790.94;;;8.29;96.38
17260;BME280;8746;49.230;9.220;2023-05-01T03:41:23;99790.34;;;8.21;96.11
17260;BME280;8746;49.230;9.220;2023-05-01T03:43:49;99793.94;;;8.18;96.72
17260;BME280;8746;49.230;9.220;2023-05-01T03:46:14;99792.41;;;8.11;95.50
17260;BME280;8746;49.230;9.220;2023-05-01T03:48:39;99787.66;;;8.23;95.52
17260;BME280;8746;49.230;9.220;2023-05-01T03:51:05;99783.97;;;8.28;95.92
17260;BME280;8746;49.230;9.220;2023-05-01T03:53:31;99783.44;;;8.17;94.81
17260;BME280;8746;49.230;9.220;2023-05-01T03:55:56;99784.13;;;8.24;95.83
17260;BME280;8746;49.230;9.220;2023-05-01T03:58:22;99784.94;;;8.26;95.73
17260;BME280;8746;49.230;9.220;2023-05-01T04:00:47;99783.81;;;8.33;94.80
17260;BME280;8746;49.230;9.220;2023-05-01T04:03:12;99784.69;;;8.33;95.26
17260;BME280;8746;49.230;9.220;2023-05-01T04:05:37;99786.00;;;8.20;94.47
17260;BME280;8746;49.230;9.220;2023-05-01T04:08:03;99792.72;;;8.29;94.49
17260;BME280;8746;49.230;9.220;2023-05-01T04:10:29;99778.53;;;8.33;94.57
17260;BME280;8746;49.230;9.220;2023-05-01T04:12:54;99777.06;;;8.26;93.83
17260;BME280;8746;49.230;9.220;2023-05-01T04:15:20;99780.69;;;8.48;94.06
17260;BME280;8746;49.230;9.220;2023-05-01T04:17:46;99773.72;;;8.47;93.53
17260;BME280;8746;49.230;9.220;2023-05-01T04:20:12;99772.75;;;8.50;93.08
17260;BME280;8746;49.230;9.220;2023-05-01T04:22:37;99774.59;;;8.48;92.60
17260;BME280;8746;49.230;9.220;2023-05-01T04:25:03;99775.53;;;8.45;92.89
17260;BME280;8746;49.230;9.220;2023-05-01T04:27:29;99770.28;;;8.45;92.34
17260;BME280;8746;49.230;9.220;2023-05-01T04:29:54;99766.59;;;8.51;92.92
17260;BME280;8746;49.230;9.220;2023-05-01T04:32:19;99769.88;;;8.58;94.11
17260;BME280;8746;49.230;9.220;2023-05-01T04:34:45;99768.25;;;8.54;92.19
17260;BME280;8746;49.230;9.220;2023-05-01T04:37:11;99773.41;;;8.57;92.88
17260;BME280;8746;49.230;9.220;2023-05-01T04:39:36;99771.78;;;8.53;92.45
17260;BME280;8746;49.230;9.220;2023-05-01T04:42:02;99769.06;;;8.56;92.41
17260;BME280;8746;49.230;9.220;2023-05-01T04:44:28;99784.13;;;8.50;91.74
17260;BME280;8746;49.230;9.220;2023-05-01T04:46:54;99774.22;;;8.59;91.79
17260;BME280;8746;49.230;9.220;2023-05-01T04:49:22;99766.81;;;8.70;92.90
17260;BME280;8746;49.230;9.220;2023-05-01T04:51:47;99764.94;;;8.74;92.76
17260;BME280;8746;49.230;9.220;2023-05-01T04:54:13;99768.88;;;8.86;92.75
17260;BME280;8746;49.230;9.220;2023-05-01T04:56:38;99766.09;;;8.90;91.16
17260;BME280;8746;49.230;9.220;2023-05-01T04:59:04;99769.47;;;8.94;91.56
17260;BME280;8746;49.230;9.220;2023-05-01T05:01:29;99771.78;;;9.03;91.70
17260;BME280;8746;49.230;9.220;2023-05-01T05:03:54;99777.28;;;8.95;90.74
17260;BME280;8746;49.230;9.220;2023-05-01T05:06:20;99778.00;;;9.01;91.34
17260;BME280;8746;49.230;9.220;2023-05-01T05:08:45;99779.50;;;9.08;90.61
17260;BME280;8746;49.230;9.220;2023-05-01T05:11:11;99780.25;;;9.11;90.79
17260;BME280;8746;49.230;9.220;2023-05-01T05:13:36;99773.13;;;9.13;90.43
17260;BME280;8746;49.230;9.220;2023-05-01T05:16:01;99780.81;;;9.20;89.59
17260;BME280;8746;49.230;9.220;2023-05-01T05:18:27;99779.78;;;9.24;90.80
17260;BME280;8746;49.230;9.220;2023-05-01T05:20:52;99777.38;;;9.41;89.08
17260;BME280;8746;49.230;9.220;2023-05-01T05:23:21;99773.00;;;9.40;89.69
17260;BME280;8746;49.230;9.220;2023-05-01T05:25:46;99776.78;;;9.57;88.76
17260;BME280;8746;49.230;9.220;2023-05-01T05:28:11;99769.63;;;9.60;87.97
17260;BME280;8746;49.230;9.220;2023-05-01T05:30:37;99773.34;;;9.55;88.25
17260;BME280;8746;49.230;9.220;2023-05-01T05:33:02;99773.44;;;9.52;87.54
17260;BME280;8746;49.230;9.220;2023-05-01T05:35:29;99772.69;;;9.50;88.71
17260;BME280;8746;49.230;9.220;2023-05-01T05:37:54;99775.53;;;9.43;87.58
17260;BME280;8746;49.230;9.220;2023-05-01T05:40:20;99771.25;;;9.41;87.58
17260;BME280;8746;49.230;9.220;2023-05-01T05:42:45;99772.91;;;9.20;88.39
17260;BME280;8746;49.230;9.220;2023-05-01T05:45:10;99781.16;;;9.34;89.17
17260;BME280;8746;49.230;9.220;2023-05-01T05:47:36;99769.31;;;9.46;88.56
17260;BME280;8746;49.230;9.220;2023-05-01T05:50:01;99771.88;;;9.48;88.76
17260;BME280;8746;49.230;9.220;2023-05-01T05:52:26;99771.38;;;9.60;87.14
17260;BME280;8746;49.230;9.220;2023-05-01T05:54:52;99763.81;;;9.74;86.49
17260;BME280;8746;49.230;9.220;2023-05-01T05:57:17;99765.13;;;9.62;86.89
17260;BME280;8746;49.230;9.220;2023-05-01T05:59:43;99763.72;;;9.54;86.70
17260;BME280;8746;49.230;9.220;2023-05-01T06:02:09;99765.19;;;9.39;87.07
17260;BME280;8746;49.230;9.220;2023-05-01T06:04:34;99764.50;;;9.34;86.28
17260;BME280;8746;49.230;9.220;2023-05-01T06:06:59;99768.56;;;9.65;86.87
17260;BME280;8746;49.230;9.220;2023-05-01T06:09:25;99764.38;;;9.60;86.67
17260;BME280;8746;49.230;9.220;2023-05-01T06:11:50;99767.72;;;9.64;87.21
17260;BME280;8746;49.230;9.220;2023-05-01T06:14:15;99768.50;;;9.66;87.05
17260;BME280;8746;49.230;9.220;2023-05-01T06:16:41;99762.56;;;9.83;87.46
17260;BME280;8746;49.230;9.220;2023-05-01T06:19:06;99755.78;;;9.77;86.59
17260;BME280;8746;49.230;9.220;2023-05-01T06:21:34;99766.09;;;9.84;85.72
17260;BME280;8746;49.230;9.220;2023-05-01T06:24:00;99757.94;;;9.90;85.61
17260;BME280;8746;49.230;9.220;2023-05-01T06:26:25;99758.47;;;9.54;85.95
17260;BME280;8746;49.230;9.220;2023-05-01T06:28:52;99759.88;;;9.62;86.46
17260;BME280;8746;49.230;9.220;2023-05-01T06:31:18;99762.06;;;9.95;85.98
17260;BME280;8746;49.230;9.220;2023-05-01T06:33:43;99760.44;;;9.93;86.91
17260;BME280;8746;49.230;9.220;2023-05-01T06:36:08;99765.25;;;10.04;86.86
17260;BME280;8746;49.230;9.220;2023-05-01T06:38:34;99760.41;;;10.15;85.42
17260;BME280;8746;49.230;9.220;2023-05-01T06:40:59;99762.56;;;10.05;86.14
17260;BME280;8746;49.230;9.220;2023-05-01T06:43:25;99759.41;;;9.97;86.12
17260;BME280;8746;49.230;9.220;2023-05-01T06:45:57;99764.03;;;10.13;86.99
17260;BME280;8746;49.230;9.220;2023-05-01T06:48:23;99765.38;;;10.23;86.90
17260;BME280;8746;49.230;9.220;2023-05-01T06:50:48;99765.53;;;10.40;87.84
17260;BME280;8746;49.230;9.220;2023-05-01T06:53:14;99759.19;;;10.45;85.83
17260;BME280;8746;49.230;9.220;2023-05-01T06:55:39;99767.34;;;10.40;84.69
17260;BME280;8746;49.230;9.220;2023-05-01T06:58:04;99776.47;;;10.52;84.90
17260;BME280;8746;49.230;9.220;2023-05-01T07:00:30;99776.44;;;10.10;84.23
17260;BME280;8746;49.230;9.220;2023-05-01T07:02:56;99772.41;;;10.22;85.16
17260;BME280;8746;49.230;9.220;2023-05-01T07:05:21;99771.50;;;10.23;84.57
17260;BME280;8746;49.230;9.220;2023-05-01T07:07:47;99774.38;;;10.17;83.87
17260;BME280;8746;49.230;9.220;2023-05-01T07:10:13;99785.00;;;10.16;83.96
17260;BME280;8746;49.230;9.220;2023-05-01T07:12:39;99780.09;;;10.06;85.01
17260;BME280;8746;49.230;9.220;2023-05-01T07:15:05;99777.88;;;10.18;84.99
17260;BME280;8746;49.230;9.220;2023-05-01T07:17:30;99780.91;;;10.08;85.59
17260;BME280;8746;49.230;9.220;2023-05-01T07:19:55;99778.56;;;10.23;84.93
17260;BME280;8746;49.230;9.220;2023-05-01T07:22:21;99778.97;;;10.34;85.54
17260;BME280;8746;49.230;9.220;2023-05-01T07:24:46;99780.19;;;10.25;84.67
17260;BME280;8746;49.230;9.220;2023-05-01T07:27:11;99784.16;;;10.36;84.38
17260;BME280;8746;49.230;9.220;2023-05-01T07:29:38;99772.66;;;10.38;83.07
17260;BME280;8746;49.230;9.220;2023-05-01T07:32:04;99780.88;;;10.31;84.00
17260;BME280;8746;49.230;9.220;2023-05-01T07:34:30;99777.38;;;10.30;84.47
17260;BME280;8746;49.230;9.220;2023-05-01T07:36:56;99777.75;;;10.43;84.98
17260;BME280;8746;49.230;9.220;2023-05-01T07:39:21;99774.66;;;10.54;84.25
17260;BME280;8746;49.230;9.220;2023-05-01T07:41:46;99779.94;;;10.54;82.83
17260;BME280;8746;49.230;9.220;2023-05-01T07:44:12;99779.94;;;10.74;84.30
17260;BME280;8746;49.230;9.220;2023-05-01T07:46:37;99769.50;;;10.71;81.39
17260;BME280;8746;49.230;9.220;2023-05-01T07:49:03;99765.41;;;10.64;81.92
17260;BME280;8746;49.230;9.220;2023-05-01T07:51:28;99758.56;;;10.60;81.92
17260;BME280;8746;49.230;9.220;2023-05-01T07:53:53;99768.75;;;10.68;81.26
17260;BME280;8746;49.230;9.220;2023-05-01T07:56:19;99772.91;;;10.94;81.50
17260;BME280;8746;49.230;9.220;2023-05-01T07:58:45;99774.72;;;11.13;79.80
17260;BME280;8746;49.230;9.220;2023-05-01T08:01:10;99773.19;;;11.07;80.95
17260;BME280;8746;49.230;9.220;2023-05-01T08:03:36;99767.09;;;11.45;80.00
17260;BME280;8746;49.230;9.220;2023-05-01T08:06:01;99773.59;;;11.57;79.65
17260;BME280;8746;49.230;9.220;2023-05-01T08:08:27;99779.81;;;11.55;77.62
17260;BME280;8746;49.230;9.220;2023-05-01T08:10:53;99778.66;;;11.61;76.78
17260;BME280;8746;49.230;9.220;2023-05-01T08:13:18;99774.44;;;11.57;77.58
17260;BME280;8746;49.230;9.220;2023-05-01T08:15:45;99774.72;;;11.51;78.47
17260;BME280;8746;49.230;9.220;2023-05-01T08:18:11;99774.50;;;11.36;79.79
17260;BME280;8746;49.230;9.220;2023-05-01T08:20:37;99778.22;;;11.32;79.36
17260;BME280;8746;49.230;9.220;2023-05-01T08:23:03;99770.66;;;11.44;79.91
17260;BME280;8746;49.230;9.220;2023-05-01T08:25:28;99766.50;;;11.57;79.37
17260;BME280;8746;49.230;9.220;2023-05-01T08:27:55;99762.09;;;11.58;78.94
17260;BME280;8746;49.230;9.220;2023-05-01T08:30:21;99755.53;;;11.66;79.13
17260;BME280;8746;49.230;9.220;2023-05-01T08:32:46;99758.88;;;11.51;78.99
17260;BME280;8746;49.230;9.220;2023-05-01T08:35:12;99752.97;;;11.46;79.97
17260;BME280;8746;49.230;9.220;2023-05-01T08:37:37;99745.25;;;11.60;80.07
17260;BME280;8746;49.230;9.220;2023-05-01T08:40:03;99749.06;;;11.35;78.81
17260;BME280;8746;49.230;9.220;2023-05-01T08:42:34;99749.81;;;11.57;78.06
17260;BME280;8746;49.230;9.220;2023-05-01T08:45:00;99747.19;;;11.57;79.03
17260;BME280;8746;49.230;9.220;2023-05-01T08:47:26;99747.25;;;11.55;77.33
17260;BME280;8746;49.230;9.220;2023-05-01T08:49:54;99752.84;;;11.49;76.59
17260;BME280;8746;49.230;9.220;2023-05-01T08:52:21;99748.47;;;11.48;76.65
17260;BME280;8746;49.230;9.220;2023-05-01T08:54:47;99744.97;;;11.47;76.35
17260;BME280;8746;49.230;9.220;2023-05-01T08:57:14;99750.66;;;11.57;76.69
17260;BME280;8746;49.230;9.220;2023-05-01T08:59:41;99750.03;;;11.52;75.12
17260;BME280;8746;49.230;9.220;2023-05-01T09:02:08;99752.03;;;11.66;76.85
17260;BME280;8746;49.230;9.220;2023-05-01T09:04:37;99756.03;;;11.75;76.22
17260;BME280;8746;49.230;9.220;2023-05-01T09:07:03;99751.66;;;11.74;74.99
17260;BME280;8746;49.230;9.220;2023-05-01T09:09:29;99744.03;;;11.67;74.79
17260;BME280;8746;49.230;9.220;2023-05-01T09:11:59;99747.78;;;11.81;74.15
17260;BME280;8746;49.230;9.220;2023-05-01T09:14:25;99743.75;;;11.91;74.98
17260;BME280;8746;49.230;9.220;2023-05-01T09:16:51;99744.13;;;12.20;75.50
17260;BME280;8746;49.230;9.220;2023-05-01T09:19:17;99751.75;;;12.44;73.85
17260;BME280;8746;49.230;9.220;2023-05-01T09:21:42;99759.22;;;12.18;74.08
17260;BME280;8746;49.230;9.220;2023-05-01T09:24:08;99758.75;;;12.45;72.68
17260;BME280;8746;49.230;9.220;2023-05-01T09:26:33;99756.91;;;12.47;73.14
17260;BME280;8746;49.230;9.220;2023-05-01T09:29:02;99756.41;;;12.56;72.79
17260;BME280;8746;49.230;9.220;2023-05-01T09:31:31;99762.03;;;12.50;70.38
17260;BME280;8746;49.230;9.220;2023-05-01T09:34:01;99756.84;;;12.82;70.72
17260;BME280;8746;49.230;9.220;2023-05-01T09:36:29;99755.66;;;12.54;69.91
17260;BME280;8746;49.230;9.220;2023-05-01T09:38:56;99758.28;;;12.72;72.10
17260;BME280;8746;49.230;9.220;2023-05-01T09:41:22;99757.81;;;12.63;71.20
17260;BME280;8746;49.230;9.220;2023-05-01T09:43:51;99756.69;;;12.85;69.89
17260;BME280;8746;49.230;9.220;2023-05-01T09:46:17;99753.63;;;12.93;69.68
17260;BME280;8746;49.230;9.220;2023-05-01T09:48:59;99758.47;;;13.18;69.61
17260;BME280;8746;49.230;9.220;2023-05-01T09:51:28;99757.31;;;13.24;66.93
17260;BME280;8746;49.230;9.220;2023-05-01T09:53:57;99764.13;;;13.28;66.38
17260;BME280;8746;49.230;9.220;2023-05-01T09:56:24;99751.31;;;13.20;65.68
17260;BME280;8746;49.230;9.220;2023-05-01T09:58:50;99767.03;;;13.23;66.48
17260;BME280;8746;49.230;9.220;2023-05-01T10:01:16;99766.75;;;13.45;64.42
17260;BME280;8746;49.230;9.220;2023-05-01T10:03:42;99756.44;;;13.23;64.12
17260;BME280;8746;49.230;9.220;2023-05-01T10:06:09;99763.41;;;13.42;64.43
17260;BME280;8746;49.230;9.220;2023-05-01T10:08:44;99760.38;;;13.32;63.77
17260;BME280;8746;49.230;9.220;2023-05-01T10:11:10;99757.16;;;13.43;65.74
17260;BME280;8746;49.230;9.220;2023-05-01T10:13:36;99757.81;;;13.30;64.84
17260;BME280;8746;49.230;9.220;2023-05-01T10:16:01;99759.69;;;13.28;64.88
17260;BME280;8746;49.230;9.220;2023-05-01T10:18:33;99752.38;;;13.82;67.10
17260;BME280;8746;49.230;9.220;2023-05-01T10:20:59;99753.19;;;13.98;65.63
17260;BME280;8746;49.230;9.220;2023-05-01T10:23:24;99756.97;;;13.94;64.56
17260;BME280;8746;49.230;9.220;2023-05-01T10:25:51;99757.78;;;14.26;64.14
17260;BME280;8746;49.230;9.220;2023-05-01T10:28:19;99757.72;;;14.42;62.84
17260;BME280;8746;49.230;9.220;2023-05-01T10:30:44;99758.00;;;13.91;65.84
17260;BME280;8746;49.230;9.220;2023-05-01T10:33:12;99756.38;;;14.05;63.44
17260;BME280;8746;49.230;9.220;2023-05-01T10:35:39;99752.50;;;13.94;62.99
17260;BME280;8746;49.230;9.220;2023-05-01T10:38:12;99752.00;;;14.34;62.17
17260;BME280;8746;49.230;9.220;2023-05-01T10:40:48;99742.78;;;14.56;62.32
17260;BME280;8746;49.230;9.220;2023-05-01T10:45:43;99752.47;;;14.71;61.84
17260;BME280;8746;49.230;9.220;2023-05-01T10:48:08;99741.28;;;14.36;61.63
17260;BME280;8746;49.230;9.220;2023-05-01T10:50:34;99744.63;;;14.70;62.48
17260;BME280;8746;49.230;9.220;2023-05-01T10:55:34;99741.00;;;15.43;59.55
17260;BME280;8746;49.230;9.220;2023-05-01T10:58:00;99746.41;;;15.42;60.34
17260;BME280;8746;49.230;9.220;2023-05-01T11:00:26;99742.94;;;14.98;61.59
17260;BME280;8746;49.230;9.220;2023-05-01T11:06:04;99746.16;;;15.17;61.96
17260;BME280;8746;49.230;9.220;2023-05-01T11:14:02;99739.25;;;15.98;57.65
17260;BME280;8746;49.230;9.220;2023-05-01T11:19:43;99738.59;;;15.95;58.64
17260;BME280;8746;49.230;9.220;2023-05-01T11:22:12;99734.97;;;16.49;57.11
17260;BME280;8746;49.230;9.220;2023-05-01T11:24:37;99742.56;;;16.68;55.95
17260;BME280;8746;49.230;9.220;2023-05-01T11:27:03;99727.63;;;16.78;56.64
17260;BME280;8746;49.230;9.220;2023-05-01T11:29:31;99722.75;;;16.59;56.88
17260;BME280;8746;49.230;9.220;2023-05-01T11:31:58;99732.94;;;16.53;59.28
17260;BME280;8746;49.230;9.220;2023-05-01T11:34:24;99718.16;;;16.48;55.74
17260;BME280;8746;49.230;9.220;2023-05-01T11:36:51;99729.22;;;16.42;56.71
17260;BME280;8746;49.230;9.220;2023-05-01T11:39:17;99730.97;;;16.03;58.09
17260;BME280;8746;49.230;9.220;2023-05-01T11:41:43;99728.72;;;16.63;57.24
17260;BME280;8746;49.230;9.220;2023-05-01T11:44:11;99735.50;;;16.41;56.33
17260;BME280;8746;49.230;9.220;2023-05-01T11:46:37;99721.88;;;16.46;56.56
17260;BME280;8746;49.230;9.220;2023-05-01T11:49:02;99712.59;;;16.39;56.27
17260;BME280;8746;49.230;9.220;2023-05-01T11:51:29;99716.78;;;16.56;55.07
17260;BME280;8746;49.230;9.220;2023-05-01T11:56:31;99714.00;;;16.57;55.65
17260;BME280;8746;49.230;9.220;2023-05-01T11:58:59;99704.97;;;16.98;53.97
17260;BME280;8746;49.230;9.220;2023-05-01T12:01:40;99700.38;;;17.01;54.08
17260;BME280;8746;49.230;9.220;2023-05-01T12:04:07;99699.28;;;17.16;53.58
17260;BME280;8746;49.230;9.220;2023-05-01T12:06:36;99697.56;;;17.15;54.36
17260;BME280;8746;49.230;9.220;2023-05-01T12:09:09;99697.19;;;16.95;53.43
17260;BME280;8746;49.230;9.220;2023-05-01T12:11:34;99691.84;;;17.08;51.18
17260;BME280;8746;49.230;9.220;2023-05-01T12:14:00;99691.41;;;17.14;50.97
17260;BME280;8746;49.230;9.220;2023-05-01T12:16:26;99695.31;;;17.22;54.30
17260;BME280;8746;49.230;9.220;2023-05-01T12:18:54;99685.88;;;17.66;51.65
17260;BME280;8746;49.230;9.220;2023-05-01T12:21:19;99692.97;;;18.38;50.96
17260;BME280;8746;49.230;9.220;2023-05-01T12:23:45;99697.88;;;18.56;51.67
17260;BME280;8746;49.230;9.220;2023-05-01T12:26:15;99695.69;;;17.04;53.01
17260;BME280;8746;49.230;9.220;2023-05-01T12:28:58;99694.38;;;17.23;52.87
17260;BME280;8746;49.230;9.220;2023-05-01T12:31:25;99693.66;;;17.69;51.45
17260;BME280;8746;49.230;9.220;2023-05-01T12:33:52;99692.34;;;17.75;52.55
17260;BME280;8746;49.230;9.220;2023-05-01T12:36:20;99695.28;;;17.96;52.14
17260;BME280;8746;49.230;9.220;2023-05-01T12:39:03;99702.06;;;18.00;52.68
17260;BME280;8746;49.230;9.220;2023-05-01T12:43:56;99697.91;;;17.48;50.13
17260;BME280;8746;49.230;9.220;2023-05-01T12:46:22;99689.03;;;18.20;50.95
17260;BME280;8746;49.230;9.220;2023-05-01T12:48:47;99694.72;;;18.62;48.68
17260;BME280;8746;49.230;9.220;2023-05-01T12:51:17;99688.28;;;19.21;48.76
17260;BME280;8746;49.230;9.220;2023-05-01T12:53:43;99693.06;;;18.25;50.17
17260;BME280;8746;49.230;9.220;2023-05-01T12:56:20;99687.59;;;18.27;50.37
17260;BME280;8746;49.230;9.220;2023-05-01T12:58:47;99692.47;;;17.73;50.12
17260;BME280;8746;49.230;9.220;2023-05-01T13:01:25;99689.03;;;18.20;50.14
17260;BME280;8746;49.230;9.220;2023-05-01T13:03:51;99693.25;;;18.58;48.86
17260;BME280;8746;49.230;9.220;2023-05-01T13:06:17;99684.94;;;18.27;48.54
17260;BME280;8746;49.230;9.220;2023-05-01T13:08:42;99684.75;;;18.64;50.23
17260;BME280;8746;49.230;9.220;2023-05-01T13:11:17;99685.34;;;18.56;49.12
17260;BME280;8746;49.230;9.220;2023-05-01T13:13:44;99682.19;;;18.51;50.10
17260;BME280;8746;49.230;9.220;2023-05-01T13:16:14;99679.28;;;17.83;50.29
17260;BME280;8746;49.230;9.220;2023-05-01T13:18:43;99681.00;;;17.84;49.37
17260;BME280;8746;49.230;9.220;2023-05-01T13:21:10;99679.47;;;17.69;50.81
17260;BME280;8746;49.230;9.220;2023-05-01T13:23:37;99682.41;;;17.77;50.16
17260;BME280;8746;49.230;9.220;2023-05-01T13:26:04;99684.63;;;17.59;49.12
17260;BME280;8746;49.230;9.220;2023-05-01T13:28:33;99686.63;;;17.44;49.07
17260;BME280;8746;49.230;9.220;2023-05-01T13:30:58;99685.69;;;16.69;52.80
17260;BME280;8746;49.230;9.220;2023-05-01T13:33:23;99681.31;;;16.81;53.02
17260;BME280;8746;49.230;9.220;2023-05-01T13:35:49;99678.84;;;16.65;53.43
17260;BME280;8746;49.230;9.220;2023-05-01T13:38:14;99676.81;;;16.30;55.91
17260;BME280;8746;49.230;9.220;2023-05-01T13:40:40;99675.44;;;16.37;53.83
17260;BME280;8746;49.230;9.220;2023-05-01T13:43:12;99678.44;;;16.32;53.97
17260;BME280;8746;49.230;9.220;2023-05-01T13:45:39;99676.38;;;16.23;53.35
17260;BME280;8746;49.230;9.220;2023-05-01T13:48:05;99685.59;;;15.92;54.66
17260;BME280;8746;49.230;9.220;2023-05-01T13:50:30;99682.59;;;15.96;55.52